Chaffee, Missouri
Current Conditions -  °F | °C
As of 8:53 PM on Tuesday 25 Nov 2014 (Local Time) from KCGI Reporting Station
Clear Clear  
Wind Chill: 30°   Ceiling: Unl
Heat Index: 30°   Visibility: 10mi
Dew Point: 27°   Wind: 0mph
Humidity: 88%   Direction: NA
Pressure: 30.2"   Gusts: NA
Location:  37.18°N, 89.66°W
Report Text: KCGI 260253Z AUTO 00000KT 10SM CLR M01/M03 A3020 RMK AO2 SLP230 T10111028 50006 TSNO
Loading
Personal Weather Stations






























Interactive Weather Map New forecast layout! Learn more

10-Day Weather Forecast

Advertisements
Track Severe Weather on mobile